Lincoln, NE

2:07 PM CDT on May 05, 2015 (GMT -0500)
Beatrice Municipal | | Change Station
CLOSE
Current Station
Airport
Location: Beatrice,
Elevation: 1322 ft
Nearby Weather Stations

Elev 1322 ft 40.30 °N, 96.75 °W | Updated 12 minutes ago

Partly Cloudy
Partly Cloudy
75 °F
Feels Like 75 °F
N
16
Wind Variable Wind from SSE
Gusts 20 mph

Today
High -- | Low -- °F
--% Chance of Precip.
Yesterday
High -- | Low -- °F
Precip. -- in
6:20 AM 8:27 PM
Full, 97% visible
Pressure 30.04 in
Visibility 10.0 miles
Clouds Scattered Clouds 4000 ft
Scattered Clouds 4700 ft
Mostly Cloudy 7000 ft
Dew Point 60 °F
Humidity 60%
Rainfall 0.01 in
Snow Depth Not available.
UV 6 out of 12
Pollen 4.50 out of 12
Air Quality Not available.
Flu Activity Local Activity
METAR KBIE 051855Z AUTO 16014G17KT 10SM SCT040 SCT047 BKN070 24/16 A3004 RMK AO2 T02380155

More Conditions Fewer Conditions

Pressure 30.04 in
Visibility 10.0 miles
Clouds Scattered Clouds 4000 ft
Scattered Clouds 4700 ft
Mostly Cloudy 7000 ft
Dew Point 60 °F
Humidity 60%
Rainfall 0.01 in
Snow Depth Not available.
UV 6 out of 12
Pollen 4.50 out of 12
Air Quality Not available.
Flu Activity Local Activity
METAR KBIE 051855Z AUTO 16014G17KT 10SM SCT040 SCT047 BKN070 24/16 A3004 RMK AO2 T02380155

More Conditions Fewer Conditions

10-Day Weather Forecast

Almanac

Astronomy

May. 05, 2015 Rise Set
Actual Time
Civil Twilight
Nautical Twilight
Astronomical Twilight
Moon
Length of Visible Light
Length of Day
Tomorrow will be .
, % of the Moon is Illuminated

Today's Extremes

State Highs State Lows

Community

WunderPhotos

Upload Photos

1,818,956 photos uploaded!

WunderBlogs® & News

Nearby

Air Quality

  Air Quality AQ Index Pollutant
Not available.

Snow Depth

Station Depth Elevation

Earthquake Activity

City Distance Mag. Time & Date
Minimum magnitude displayed is 2.5.

Coastal Water Temperatures

Place Temperature

Stations

Nearby Weather Stations

Station Location Temp. Windchill Dew Point Humidity Wind Precip. Elev Updated Type